Big Water, Utah
Current Conditions -  °F | °C
As of 11:53 AM on Tuesday 21 Oct 2014 (Local Time) from KBCE Reporting Station
Broken Clouds Broken Clouds  
Wind Chill: 56°   Ceiling: 5000
Heat Index: 56°   Visibility: 10mi
Dew Point: 39°   Wind: 8mph
Humidity: 53%   Direction: 130°SE
Pressure: 30.16"   Gusts: 18mph
Location:  37.2711°N, 111.769°W
Report Text: KBCE 211753Z AUTO 13007G16KT 10SM SCT045 BKN050 13/04 A3016 RMK AO2 SLP142 T01330039 10139 20006 58002 TSNO
Loading
Personal Weather Stations






























Interactive Weather Map
Tropical Storm Tracking
New forecast layout! Learn more

10-Day Weather Forecast

Advertisements
Track Severe Weather on mobile